sensor_id;sensor_type;location;lat;lon;timestamp;P1;durP1;ratioP1;P2;durP2;ratioP2
67737;SDS011;54534;43.612;1.572;2022-08-19T00:00:04;4.93;;;2.83;;
67737;SDS011;54534;43.612;1.572;2022-08-19T00:02:32;4.97;;;2.67;;
67737;SDS011;54534;43.612;1.572;2022-08-19T00:04:58;4.07;;;2.90;;
67737;SDS011;54534;43.612;1.572;2022-08-19T00:07:23;3.97;;;2.83;;
67737;SDS011;54534;43.612;1.572;2022-08-19T00:09:48;5.23;;;3.30;;
67737;SDS011;54534;43.612;1.572;2022-08-19T00:12:14;5.93;;;3.37;;
67737;SDS011;54534;43.612;1.572;2022-08-19T00:14:40;3.60;;;2.80;;
67737;SDS011;54534;43.612;1.572;2022-08-19T00:17:06;3.73;;;2.83;;
67737;SDS011;54534;43.612;1.572;2022-08-19T00:19:33;5.97;;;3.27;;
67737;SDS011;54534;43.612;1.572;2022-08-19T00:21:59;6.87;;;3.33;;
67737;SDS011;54534;43.612;1.572;2022-08-19T00:24:25;6.47;;;3.60;;
67737;SDS011;54534;43.612;1.572;2022-08-19T00:26:52;4.20;;;2.87;;
67737;SDS011;54534;43.612;1.572;2022-08-19T00:29:18;4.13;;;3.10;;
67737;SDS011;54534;43.612;1.572;2022-08-19T00:31:45;3.57;;;3.20;;
67737;SDS011;54534;43.612;1.572;2022-08-19T00:34:11;5.83;;;3.20;;
67737;SDS011;54534;43.612;1.572;2022-08-19T00:36:39;4.87;;;3.10;;
67737;SDS011;54534;43.612;1.572;2022-08-19T00:39:05;7.47;;;3.03;;
67737;SDS011;54534;43.612;1.572;2022-08-19T00:41:31;5.17;;;3.43;;
67737;SDS011;54534;43.612;1.572;2022-08-19T00:44:06;4.77;;;3.03;;
67737;SDS011;54534;43.612;1.572;2022-08-19T00:46:32;3.50;;;3.20;;
67737;SDS011;54534;43.612;1.572;2022-08-19T00:48:59;5.23;;;3.00;;
67737;SDS011;54534;43.612;1.572;2022-08-19T00:51:26;4.00;;;3.17;;
67737;SDS011;54534;43.612;1.572;2022-08-19T00:53:55;5.40;;;3.28;;
67737;SDS011;54534;43.612;1.572;2022-08-19T00:56:22;5.73;;;3.13;;
67737;SDS011;54534;43.612;1.572;2022-08-19T00:58:48;4.73;;;3.30;;
67737;SDS011;54534;43.612;1.572;2022-08-19T01:01:14;4.73;;;3.07;;
67737;SDS011;54534;43.612;1.572;2022-08-19T01:03:40;5.10;;;3.10;;
67737;SDS011;54534;43.612;1.572;2022-08-19T01:06:06;4.10;;;3.30;;
67737;SDS011;54534;43.612;1.572;2022-08-19T01:08:32;6.17;;;3.40;;
67737;SDS011;54534;43.612;1.572;2022-08-19T01:10:58;5.10;;;3.30;;
67737;SDS011;54534;43.612;1.572;2022-08-19T01:13:29;5.50;;;3.20;;
67737;SDS011;54534;43.612;1.572;2022-08-19T01:15:59;5.63;;;3.20;;
67737;SDS011;54534;43.612;1.572;2022-08-19T01:18:28;5.73;;;4.07;;
67737;SDS011;54534;43.612;1.572;2022-08-19T01:20:56;4.07;;;3.37;;
67737;SDS011;54534;43.612;1.572;2022-08-19T01:23:27;6.40;;;3.67;;
67737;SDS011;54534;43.612;1.572;2022-08-19T01:26:08;8.80;;;4.10;;
67737;SDS011;54534;43.612;1.572;2022-08-19T01:28:36;6.07;;;3.50;;
67737;SDS011;54534;43.612;1.572;2022-08-19T01:31:03;5.50;;;3.30;;
67737;SDS011;54534;43.612;1.572;2022-08-19T01:33:29;4.83;;;3.57;;
67737;SDS011;54534;43.612;1.572;2022-08-19T01:36:06;5.40;;;3.30;;
67737;SDS011;54534;43.612;1.572;2022-08-19T01:38:37;4.20;;;3.50;;
67737;SDS011;54534;43.612;1.572;2022-08-19T01:41:03;4.20;;;3.20;;
67737;SDS011;54534;43.612;1.572;2022-08-19T01:43:30;4.63;;;3.47;;
67737;SDS011;54534;43.612;1.572;2022-08-19T01:45:55;4.63;;;3.20;;
67737;SDS011;54534;43.612;1.572;2022-08-19T01:48:21;6.30;;;3.40;;
67737;SDS011;54534;43.612;1.572;2022-08-19T01:50:47;6.33;;;3.87;;
67737;SDS011;54534;43.612;1.572;2022-08-19T01:53:13;6.70;;;3.40;;
67737;SDS011;54534;43.612;1.572;2022-08-19T01:55:39;5.23;;;3.67;;
67737;SDS011;54534;43.612;1.572;2022-08-19T01:58:11;7.10;;;3.27;;
67737;SDS011;54534;43.612;1.572;2022-08-19T02:00:39;5.13;;;3.13;;
67737;SDS011;54534;43.612;1.572;2022-08-19T02:03:05;7.13;;;3.80;;
67737;SDS011;54534;43.612;1.572;2022-08-19T02:05:31;7.17;;;3.33;;
67737;SDS011;54534;43.612;1.572;2022-08-19T02:07:57;6.17;;;3.20;;
67737;SDS011;54534;43.612;1.572;2022-08-19T02:10:23;5.07;;;3.50;;
67737;SDS011;54534;43.612;1.572;2022-08-19T02:12:49;6.40;;;3.83;;
67737;SDS011;54534;43.612;1.572;2022-08-19T02:15:16;5.80;;;3.60;;
67737;SDS011;54534;43.612;1.572;2022-08-19T02:17:47;5.03;;;3.10;;
67737;SDS011;54534;43.612;1.572;2022-08-19T02:20:13;6.13;;;3.17;;
67737;SDS011;54534;43.612;1.572;2022-08-19T02:22:40;4.87;;;3.07;;
67737;SDS011;54534;43.612;1.572;2022-08-19T02:25:07;5.03;;;3.50;;
67737;SDS011;54534;43.612;1.572;2022-08-19T02:27:33;7.90;;;3.40;;
67737;SDS011;54534;43.612;1.572;2022-08-19T02:29:59;6.00;;;3.23;;
67737;SDS011;54534;43.612;1.572;2022-08-19T02:32:24;7.57;;;3.57;;
67737;SDS011;54534;43.612;1.572;2022-08-19T02:34:50;5.47;;;3.13;;
67737;SDS011;54534;43.612;1.572;2022-08-19T02:37:15;8.07;;;3.57;;
67737;SDS011;54534;43.612;1.572;2022-08-19T02:39:59;7.90;;;3.60;;
67737;SDS011;54534;43.612;1.572;2022-08-19T02:42:25;5.13;;;4.07;;
67737;SDS011;54534;43.612;1.572;2022-08-19T02:44:50;6.13;;;3.97;;
67737;SDS011;54534;43.612;1.572;2022-08-19T02:47:17;5.73;;;3.40;;
67737;SDS011;54534;43.612;1.572;2022-08-19T02:49:43;6.13;;;3.07;;
67737;SDS011;54534;43.612;1.572;2022-08-19T02:52:10;9.23;;;4.43;;
67737;SDS011;54534;43.612;1.572;2022-08-19T02:54:36;5.60;;;3.13;;
67737;SDS011;54534;43.612;1.572;2022-08-19T02:57:04;5.80;;;3.60;;
67737;SDS011;54534;43.612;1.572;2022-08-19T02:59:31;8.53;;;3.33;;
67737;SDS011;54534;43.612;1.572;2022-08-19T03:01:57;7.97;;;4.07;;
67737;SDS011;54534;43.612;1.572;2022-08-19T03:04:23;9.53;;;4.13;;
67737;SDS011;54534;43.612;1.572;2022-08-19T03:06:49;8.80;;;3.67;;
67737;SDS011;54534;43.612;1.572;2022-08-19T03:09:15;5.53;;;3.57;;
67737;SDS011;54534;43.612;1.572;2022-08-19T03:11:43;5.67;;;3.27;;
67737;SDS011;54534;43.612;1.572;2022-08-19T03:14:08;4.57;;;3.43;;
67737;SDS011;54534;43.612;1.572;2022-08-19T03:16:40;5.87;;;3.57;;
67737;SDS011;54534;43.612;1.572;2022-08-19T03:19:07;7.57;;;3.50;;
67737;SDS011;54534;43.612;1.572;2022-08-19T03:21:32;7.50;;;3.33;;
67737;SDS011;54534;43.612;1.572;2022-08-19T03:24:02;9.07;;;4.50;;
67737;SDS011;54534;43.612;1.572;2022-08-19T03:26:30;5.43;;;3.70;;
67737;SDS011;54534;43.612;1.572;2022-08-19T03:28:56;5.90;;;3.70;;
67737;SDS011;54534;43.612;1.572;2022-08-19T03:31:22;5.20;;;3.20;;
67737;SDS011;54534;43.612;1.572;2022-08-19T03:33:48;6.87;;;3.60;;
67737;SDS011;54534;43.612;1.572;2022-08-19T03:36:17;5.30;;;3.27;;
67737;SDS011;54534;43.612;1.572;2022-08-19T03:38:46;6.70;;;3.43;;
67737;SDS011;54534;43.612;1.572;2022-08-19T03:41:24;5.73;;;3.33;;
67737;SDS011;54534;43.612;1.572;2022-08-19T03:43:51;6.60;;;3.70;;
67737;SDS011;54534;43.612;1.572;2022-08-19T03:46:23;5.83;;;3.40;;
67737;SDS011;54534;43.612;1.572;2022-08-19T03:48:52;7.30;;;3.73;;
67737;SDS011;54534;43.612;1.572;2022-08-19T03:51:26;4.63;;;3.53;;
67737;SDS011;54534;43.612;1.572;2022-08-19T03:53:55;6.20;;;3.77;;
67737;SDS011;54534;43.612;1.572;2022-08-19T03:56:22;5.37;;;3.30;;
67737;SDS011;54534;43.612;1.572;2022-08-19T03:58:50;6.30;;;3.83;;
67737;SDS011;54534;43.612;1.572;2022-08-19T04:01:17;6.60;;;3.00;;
67737;SDS011;54534;43.612;1.572;2022-08-19T04:03:44;5.37;;;3.57;;
67737;SDS011;54534;43.612;1.572;2022-08-19T04:06:18;4.60;;;3.17;;
67737;SDS011;54534;43.612;1.572;2022-08-19T04:08:49;7.03;;;2.90;;
67737;SDS011;54534;43.612;1.572;2022-08-19T04:11:17;5.07;;;3.50;;
67737;SDS011;54534;43.612;1.572;2022-08-19T04:13:48;7.67;;;3.60;;
67737;SDS011;54534;43.612;1.572;2022-08-19T04:16:16;5.83;;;3.40;;
67737;SDS011;54534;43.612;1.572;2022-08-19T04:18:46;5.73;;;3.43;;
67737;SDS011;54534;43.612;1.572;2022-08-19T04:21:20;6.80;;;3.37;;
67737;SDS011;54534;43.612;1.572;2022-08-19T04:23:47;8.53;;;3.53;;
67737;SDS011;54534;43.612;1.572;2022-08-19T04:26:23;7.30;;;3.57;;
67737;SDS011;54534;43.612;1.572;2022-08-19T04:28:51;5.87;;;3.37;;
67737;SDS011;54534;43.612;1.572;2022-08-19T04:31:18;5.73;;;3.50;;
67737;SDS011;54534;43.612;1.572;2022-08-19T04:33:51;6.30;;;3.13;;
67737;SDS011;54534;43.612;1.572;2022-08-19T04:36:20;12.40;;;3.80;;
67737;SDS011;54534;43.612;1.572;2022-08-19T04:38:47;9.90;;;3.70;;
67737;SDS011;54534;43.612;1.572;2022-08-19T04:41:15;9.80;;;3.67;;
67737;SDS011;54534;43.612;1.572;2022-08-19T04:44:00;10.27;;;3.60;;
67737;SDS011;54534;43.612;1.572;2022-08-19T04:46:27;6.97;;;3.70;;
67737;SDS011;54534;43.612;1.572;2022-08-19T04:48:55;8.73;;;3.67;;
67737;SDS011;54534;43.612;1.572;2022-08-19T04:51:21;11.30;;;4.00;;
67737;SDS011;54534;43.612;1.572;2022-08-19T04:53:47;10.00;;;4.47;;
67737;SDS011;54534;43.612;1.572;2022-08-19T04:56:13;17.13;;;8.33;;
67737;SDS011;54534;43.612;1.572;2022-08-19T04:58:41;19.60;;;10.80;;
67737;SDS011;54534;43.612;1.572;2022-08-19T05:01:08;17.57;;;9.77;;
67737;SDS011;54534;43.612;1.572;2022-08-19T05:03:38;18.10;;;9.60;;
67737;SDS011;54534;43.612;1.572;2022-08-19T05:06:08;17.43;;;7.87;;
67737;SDS011;54534;43.612;1.572;2022-08-19T05:08:36;11.80;;;7.17;;
67737;SDS011;54534;43.612;1.572;2022-08-19T05:11:24;11.75;;;5.82;;
67737;SDS011;54534;43.612;1.572;2022-08-19T05:13:51;9.43;;;4.93;;
67737;SDS011;54534;43.612;1.572;2022-08-19T05:16:18;13.63;;;5.17;;
67737;SDS011;54534;43.612;1.572;2022-08-19T05:18:45;10.13;;;4.83;;
67737;SDS011;54534;43.612;1.572;2022-08-19T05:21:30;10.37;;;5.13;;
67737;SDS011;54534;43.612;1.572;2022-08-19T05:24:15;11.13;;;4.00;;
67737;SDS011;54534;43.612;1.572;2022-08-19T05:26:43;8.10;;;4.17;;
67737;SDS011;54534;43.612;1.572;2022-08-19T05:29:14;10.07;;;4.57;;
67737;SDS011;54534;43.612;1.572;2022-08-19T05:31:41;11.80;;;4.43;;
67737;SDS011;54534;43.612;1.572;2022-08-19T05:34:07;5.83;;;3.90;;
67737;SDS011;54534;43.612;1.572;2022-08-19T05:36:34;7.90;;;3.70;;
67737;SDS011;54534;43.612;1.572;2022-08-19T05:39:04;8.93;;;3.63;;
67737;SDS011;54534;43.612;1.572;2022-08-19T05:41:31;12.13;;;4.07;;
67737;SDS011;54534;43.612;1.572;2022-08-19T05:43:57;11.87;;;3.77;;
67737;SDS011;54534;43.612;1.572;2022-08-19T05:46:23;8.67;;;4.57;;
67737;SDS011;54534;43.612;1.572;2022-08-19T05:48:49;9.37;;;3.57;;
67737;SDS011;54534;43.612;1.572;2022-08-19T05:51:15;13.13;;;4.30;;
67737;SDS011;54534;43.612;1.572;2022-08-19T05:53:41;9.40;;;3.53;;
67737;SDS011;54534;43.612;1.572;2022-08-19T05:56:08;6.63;;;3.60;;
67737;SDS011;54534;43.612;1.572;2022-08-19T05:58:36;9.47;;;3.77;;
67737;SDS011;54534;43.612;1.572;2022-08-19T06:01:03;7.60;;;3.60;;
67737;SDS011;54534;43.612;1.572;2022-08-19T06:03:34;10.87;;;3.33;;
67737;SDS011;54534;43.612;1.572;2022-08-19T06:06:02;8.70;;;3.30;;
67737;SDS011;54534;43.612;1.572;2022-08-19T06:08:28;6.77;;;3.13;;
67737;SDS011;54534;43.612;1.572;2022-08-19T06:10:54;11.03;;;3.70;;
67737;SDS011;54534;43.612;1.572;2022-08-19T06:13:20;15.87;;;4.30;;
67737;SDS011;54534;43.612;1.572;2022-08-19T06:15:46;9.63;;;3.70;;
67737;SDS011;54534;43.612;1.572;2022-08-19T06:18:12;11.67;;;3.90;;
67737;SDS011;54534;43.612;1.572;2022-08-19T06:20:39;8.90;;;3.40;;
67737;SDS011;54534;43.612;1.572;2022-08-19T06:23:05;9.63;;;3.80;;
67737;SDS011;54534;43.612;1.572;2022-08-19T06:25:30;13.13;;;3.77;;
67737;SDS011;54534;43.612;1.572;2022-08-19T06:27:56;7.40;;;3.60;;
67737;SDS011;54534;43.612;1.572;2022-08-19T06:30:21;7.93;;;2.97;;
67737;SDS011;54534;43.612;1.572;2022-08-19T06:32:47;9.23;;;3.57;;
67737;SDS011;54534;43.612;1.572;2022-08-19T06:35:12;9.80;;;3.80;;
67737;SDS011;54534;43.612;1.572;2022-08-19T06:37:39;8.60;;;3.20;;
67737;SDS011;54534;43.612;1.572;2022-08-19T06:40:05;7.60;;;4.03;;
67737;SDS011;54534;43.612;1.572;2022-08-19T06:42:33;9.13;;;3.50;;
67737;SDS011;54534;43.612;1.572;2022-08-19T06:44:59;9.67;;;3.50;;
67737;SDS011;54534;43.612;1.572;2022-08-19T06:47:28;7.90;;;3.53;;
67737;SDS011;54534;43.612;1.572;2022-08-19T06:49:57;9.07;;;3.73;;
67737;SDS011;54534;43.612;1.572;2022-08-19T06:52:37;6.97;;;3.60;;
67737;SDS011;54534;43.612;1.572;2022-08-19T06:55:04;10.10;;;3.97;;
67737;SDS011;54534;43.612;1.572;2022-08-19T06:57:30;8.70;;;3.77;;
67737;SDS011;54534;43.612;1.572;2022-08-19T06:59:57;7.67;;;3.57;;
67737;SDS011;54534;43.612;1.572;2022-08-19T07:02:25;9.00;;;3.40;;
67737;SDS011;54534;43.612;1.572;2022-08-19T07:04:51;8.67;;;3.47;;
67737;SDS011;54534;43.612;1.572;2022-08-19T07:07:17;10.83;;;3.73;;
67737;SDS011;54534;43.612;1.572;2022-08-19T07:09:43;8.47;;;3.70;;
67737;SDS011;54534;43.612;1.572;2022-08-19T07:12:10;8.67;;;3.63;;
67737;SDS011;54534;43.612;1.572;2022-08-19T07:14:40;7.77;;;3.50;;
67737;SDS011;54534;43.612;1.572;2022-08-19T07:17:08;8.93;;;3.33;;
67737;SDS011;54534;43.612;1.572;2022-08-19T07:19:36;6.38;;;3.53;;
67737;SDS011;54534;43.612;1.572;2022-08-19T07:22:04;5.40;;;3.00;;
67737;SDS011;54534;43.612;1.572;2022-08-19T07:24:31;7.17;;;3.50;;
67737;SDS011;54534;43.612;1.572;2022-08-19T07:26:58;8.57;;;3.03;;
67737;SDS011;54534;43.612;1.572;2022-08-19T07:29:27;5.57;;;3.60;;
67737;SDS011;54534;43.612;1.572;2022-08-19T07:31:54;5.17;;;3.20;;
67737;SDS011;54534;43.612;1.572;2022-08-19T07:34:22;6.57;;;3.13;;
67737;SDS011;54534;43.612;1.572;2022-08-19T07:36:48;8.90;;;3.70;;
67737;SDS011;54534;43.612;1.572;2022-08-19T07:39:19;7.23;;;3.53;;
67737;SDS011;54534;43.612;1.572;2022-08-19T07:41:47;8.67;;;3.70;;
67737;SDS011;54534;43.612;1.572;2022-08-19T07:44:13;9.03;;;3.53;;
67737;SDS011;54534;43.612;1.572;2022-08-19T07:46:44;10.87;;;4.63;;
67737;SDS011;54534;43.612;1.572;2022-08-19T07:49:12;6.67;;;3.00;;
67737;SDS011;54534;43.612;1.572;2022-08-19T07:51:44;7.17;;;3.27;;
67737;SDS011;54534;43.612;1.572;2022-08-19T07:54:12;7.97;;;3.70;;
67737;SDS011;54534;43.612;1.572;2022-08-19T07:56:37;8.30;;;3.47;;
67737;SDS011;54534;43.612;1.572;2022-08-19T07:59:03;5.20;;;3.07;;
67737;SDS011;54534;43.612;1.572;2022-08-19T08:01:29;8.67;;;3.43;;
67737;SDS011;54534;43.612;1.572;2022-08-19T08:03:56;5.43;;;2.80;;
67737;SDS011;54534;43.612;1.572;2022-08-19T08:06:40;6.97;;;3.23;;
67737;SDS011;54534;43.612;1.572;2022-08-19T08:09:27;6.37;;;3.13;;
67737;SDS011;54534;43.612;1.572;2022-08-19T08:11:56;5.57;;;2.73;;
67737;SDS011;54534;43.612;1.572;2022-08-19T08:14:31;7.10;;;3.60;;
67737;SDS011;54534;43.612;1.572;2022-08-19T08:17:01;5.50;;;2.77;;
67737;SDS011;54534;43.612;1.572;2022-08-19T08:19:27;6.47;;;3.33;;
67737;SDS011;54534;43.612;1.572;2022-08-19T08:21:54;6.80;;;3.07;;
67737;SDS011;54534;43.612;1.572;2022-08-19T08:24:21;8.13;;;3.07;;
67737;SDS011;54534;43.612;1.572;2022-08-19T08:26:47;5.73;;;2.87;;
67737;SDS011;54534;43.612;1.572;2022-08-19T08:29:13;8.50;;;3.17;;
67737;SDS011;54534;43.612;1.572;2022-08-19T08:31:39;6.03;;;2.97;;
67737;SDS011;54534;43.612;1.572;2022-08-19T08:34:06;6.37;;;3.10;;
67737;SDS011;54534;43.612;1.572;2022-08-19T08:36:35;7.40;;;3.30;;
67737;SDS011;54534;43.612;1.572;2022-08-19T08:39:03;5.73;;;3.10;;
67737;SDS011;54534;43.612;1.572;2022-08-19T08:43:55;7.07;;;3.23;;
67737;SDS011;54534;43.612;1.572;2022-08-19T08:46:35;6.90;;;3.50;;
67737;SDS011;54534;43.612;1.572;2022-08-19T08:51:44;5.23;;;3.10;;
67737;SDS011;54534;43.612;1.572;2022-08-19T08:54:14;4.60;;;2.77;;
67737;SDS011;54534;43.612;1.572;2022-08-19T08:56:45;7.07;;;3.13;;
67737;SDS011;54534;43.612;1.572;2022-08-19T08:59:22;6.33;;;2.77;;
67737;SDS011;54534;43.612;1.572;2022-08-19T09:01:57;5.87;;;2.90;;
67737;SDS011;54534;43.612;1.572;2022-08-19T09:04:22;10.77;;;3.93;;
67737;SDS011;54534;43.612;1.572;2022-08-19T09:06:56;5.77;;;2.97;;
67737;SDS011;54534;43.612;1.572;2022-08-19T09:09:45;5.57;;;2.57;;
67737;SDS011;54534;43.612;1.572;2022-08-19T09:15:27;6.10;;;2.60;;
67737;SDS011;54534;43.612;1.572;2022-08-19T09:18:01;7.77;;;2.83;;
67737;SDS011;54534;43.612;1.572;2022-08-19T09:20:28;8.47;;;3.93;;
67737;SDS011;54534;43.612;1.572;2022-08-19T09:22:56;5.67;;;3.03;;
67737;SDS011;54534;43.612;1.572;2022-08-19T09:25:21;6.20;;;3.40;;
67737;SDS011;54534;43.612;1.572;2022-08-19T09:27:48;8.03;;;2.83;;
67737;SDS011;54534;43.612;1.572;2022-08-19T09:30:22;4.90;;;2.60;;
67737;SDS011;54534;43.612;1.572;2022-08-19T09:32:52;5.60;;;3.00;;
67737;SDS011;54534;43.612;1.572;2022-08-19T09:35:18;7.60;;;3.97;;
67737;SDS011;54534;43.612;1.572;2022-08-19T09:37:47;5.53;;;3.10;;
67737;SDS011;54534;43.612;1.572;2022-08-19T09:40:14;4.40;;;3.17;;
67737;SDS011;54534;43.612;1.572;2022-08-19T09:42:40;5.20;;;2.97;;
67737;SDS011;54534;43.612;1.572;2022-08-19T09:45:08;6.20;;;3.37;;
67737;SDS011;54534;43.612;1.572;2022-08-19T09:47:34;3.40;;;2.70;;
67737;SDS011;54534;43.612;1.572;2022-08-19T09:50:03;3.50;;;2.63;;
67737;SDS011;54534;43.612;1.572;2022-08-19T09:52:33;2.90;;;2.53;;
67737;SDS011;54534;43.612;1.572;2022-08-19T09:54:59;4.93;;;2.87;;
67737;SDS011;54534;43.612;1.572;2022-08-19T09:57:25;3.70;;;2.50;;
67737;SDS011;54534;43.612;1.572;2022-08-19T09:59:50;2.87;;;2.50;;
67737;SDS011;54534;43.612;1.572;2022-08-19T10:02:16;5.93;;;3.10;;
67737;SDS011;54534;43.612;1.572;2022-08-19T10:04:41;4.57;;;2.50;;
67737;SDS011;54534;43.612;1.572;2022-08-19T10:07:25;5.93;;;2.53;;
67737;SDS011;54534;43.612;1.572;2022-08-19T10:09:50;5.20;;;2.77;;
67737;SDS011;54534;43.612;1.572;2022-08-19T10:12:15;3.60;;;2.87;;
67737;SDS011;54534;43.612;1.572;2022-08-19T10:14:41;3.10;;;2.30;;
67737;SDS011;54534;43.612;1.572;2022-08-19T10:17:07;3.17;;;2.43;;
67737;SDS011;54534;43.612;1.572;2022-08-19T10:19:33;5.90;;;2.90;;
67737;SDS011;54534;43.612;1.572;2022-08-19T10:22:04;3.30;;;2.60;;
67737;SDS011;54534;43.612;1.572;2022-08-19T10:24:31;6.37;;;2.80;;
67737;SDS011;54534;43.612;1.572;2022-08-19T10:26:58;7.00;;;2.80;;
67737;SDS011;54534;43.612;1.572;2022-08-19T10:29:25;5.00;;;2.57;;
67737;SDS011;54534;43.612;1.572;2022-08-19T10:31:53;4.97;;;2.70;;
67737;SDS011;54534;43.612;1.572;2022-08-19T10:34:19;8.10;;;2.93;;
67737;SDS011;54534;43.612;1.572;2022-08-19T10:36:44;5.60;;;2.70;;
67737;SDS011;54534;43.612;1.572;2022-08-19T10:39:10;7.07;;;2.83;;
67737;SDS011;54534;43.612;1.572;2022-08-19T10:41:38;7.33;;;3.07;;
67737;SDS011;54534;43.612;1.572;2022-08-19T10:44:05;3.40;;;2.63;;
67737;SDS011;54534;43.612;1.572;2022-08-19T10:46:33;5.30;;;2.50;;
67737;SDS011;54534;43.612;1.572;2022-08-19T10:49:02;4.45;;;2.67;;
67737;SDS011;54534;43.612;1.572;2022-08-19T10:51:29;4.17;;;2.80;;
67737;SDS011;54534;43.612;1.572;2022-08-19T10:54:13;5.83;;;3.30;;
67737;SDS011;54534;43.612;1.572;2022-08-19T10:56:39;3.87;;;2.47;;
67737;SDS011;54534;43.612;1.572;2022-08-19T10:59:27;5.30;;;3.07;;
67737;SDS011;54534;43.612;1.572;2022-08-19T11:01:54;3.37;;;2.60;;
67737;SDS011;54534;43.612;1.572;2022-08-19T11:04:25;4.50;;;2.63;;
67737;SDS011;54534;43.612;1.572;2022-08-19T11:06:50;3.10;;;2.40;;
67737;SDS011;54534;43.612;1.572;2022-08-19T11:09:17;5.67;;;2.63;;
67737;SDS011;54534;43.612;1.572;2022-08-19T11:11:44;4.55;;;2.63;;
67737;SDS011;54534;43.612;1.572;2022-08-19T11:14:14;4.97;;;2.73;;
67737;SDS011;54534;43.612;1.572;2022-08-19T11:16:41;2.73;;;2.30;;
67737;SDS011;54534;43.612;1.572;2022-08-19T11:19:08;2.93;;;2.40;;
67737;SDS011;54534;43.612;1.572;2022-08-19T11:21:36;5.90;;;2.73;;
67737;SDS011;54534;43.612;1.572;2022-08-19T11:24:09;4.50;;;2.40;;
67737;SDS011;54534;43.612;1.572;2022-08-19T11:26:39;3.10;;;2.33;;
67737;SDS011;54534;43.612;1.572;2022-08-19T11:29:07;3.17;;;2.40;;
67737;SDS011;54534;43.612;1.572;2022-08-19T11:31:38;3.40;;;2.00;;
67737;SDS011;54534;43.612;1.572;2022-08-19T11:34:07;3.83;;;2.80;;
67737;SDS011;54534;43.612;1.572;2022-08-19T11:36:36;3.10;;;2.17;;
67737;SDS011;54534;43.612;1.572;2022-08-19T11:39:05;3.57;;;1.97;;
67737;SDS011;54534;43.612;1.572;2022-08-19T11:41:31;4.67;;;2.67;;
67737;SDS011;54534;43.612;1.572;2022-08-19T11:43:57;4.43;;;2.70;;
67737;SDS011;54534;43.612;1.572;2022-08-19T11:46:24;5.57;;;2.43;;
67737;SDS011;54534;43.612;1.572;2022-08-19T11:48:50;4.40;;;2.97;;
67737;SDS011;54534;43.612;1.572;2022-08-19T11:51:17;4.17;;;2.40;;
67737;SDS011;54534;43.612;1.572;2022-08-19T11:53:46;5.23;;;2.80;;
67737;SDS011;54534;43.612;1.572;2022-08-19T11:56:12;5.27;;;2.67;;
67737;SDS011;54534;43.612;1.572;2022-08-19T11:58:38;3.67;;;2.17;;
67737;SDS011;54534;43.612;1.572;2022-08-19T12:01:07;3.50;;;2.53;;
67737;SDS011;54534;43.612;1.572;2022-08-19T12:03:36;4.25;;;2.72;;
67737;SDS011;54534;43.612;1.572;2022-08-19T12:06:03;4.50;;;2.57;;
67737;SDS011;54534;43.612;1.572;2022-08-19T12:08:30;4.80;;;2.37;;
67737;SDS011;54534;43.612;1.572;2022-08-19T12:10:56;5.33;;;2.57;;
67737;SDS011;54534;43.612;1.572;2022-08-19T12:13:21;3.90;;;2.33;;
67737;SDS011;54534;43.612;1.572;2022-08-19T12:15:47;2.97;;;2.53;;
67737;SDS011;54534;43.612;1.572;2022-08-19T12:18:13;3.13;;;2.50;;
67737;SDS011;54534;43.612;1.572;2022-08-19T12:20:39;5.03;;;2.70;;
67737;SDS011;54534;43.612;1.572;2022-08-19T12:23:07;3.63;;;2.67;;
67737;SDS011;54534;43.612;1.572;2022-08-19T12:25:34;2.80;;;2.43;;
67737;SDS011;54534;43.612;1.572;2022-08-19T12:28:00;3.47;;;2.57;;
67737;SDS011;54534;43.612;1.572;2022-08-19T12:30:26;3.13;;;2.67;;
67737;SDS011;54534;43.612;1.572;2022-08-19T12:32:52;3.33;;;2.63;;
67737;SDS011;54534;43.612;1.572;2022-08-19T12:35:17;4.33;;;2.80;;
67737;SDS011;54534;43.612;1.572;2022-08-19T12:37:45;4.57;;;2.80;;
67737;SDS011;54534;43.612;1.572;2022-08-19T12:40:12;6.90;;;2.80;;
67737;SDS011;54534;43.612;1.572;2022-08-19T12:42:39;4.07;;;3.20;;
67737;SDS011;54534;43.612;1.572;2022-08-19T12:45:11;3.83;;;2.42;;
67737;SDS011;54534;43.612;1.572;2022-08-19T12:47:38;5.20;;;2.83;;
67737;SDS011;54534;43.612;1.572;2022-08-19T12:50:04;6.30;;;2.90;;
67737;SDS011;54534;43.612;1.572;2022-08-19T12:52:34;6.60;;;2.92;;
67737;SDS011;54534;43.612;1.572;2022-08-19T12:55:02;7.22;;;2.80;;
67737;SDS011;54534;43.612;1.572;2022-08-19T12:57:29;5.00;;;2.77;;
67737;SDS011;54534;43.612;1.572;2022-08-19T12:59:58;5.80;;;2.83;;
67737;SDS011;54534;43.612;1.572;2022-08-19T13:02:32;3.83;;;2.90;;
67737;SDS011;54534;43.612;1.572;2022-08-19T13:04:59;3.53;;;2.80;;
67737;SDS011;54534;43.612;1.572;2022-08-19T13:07:25;3.43;;;2.50;;
67737;SDS011;54534;43.612;1.572;2022-08-19T13:09:51;4.20;;;2.43;;
67737;SDS011;54534;43.612;1.572;2022-08-19T13:12:17;4.73;;;2.87;;
67737;SDS011;54534;43.612;1.572;2022-08-19T13:14:45;3.43;;;3.07;;
67737;SDS011;54534;43.612;1.572;2022-08-19T13:19:40;4.90;;;2.93;;
67737;SDS011;54534;43.612;1.572;2022-08-19T13:22:06;5.20;;;2.70;;
67737;SDS011;54534;43.612;1.572;2022-08-19T13:24:32;5.83;;;2.47;;
67737;SDS011;54534;43.612;1.572;2022-08-19T13:26:58;3.77;;;2.40;;
67737;SDS011;54534;43.612;1.572;2022-08-19T13:29:25;7.67;;;2.70;;
67737;SDS011;54534;43.612;1.572;2022-08-19T13:32:08;4.70;;;3.30;;
67737;SDS011;54534;43.612;1.572;2022-08-19T13:34:52;3.77;;;2.77;;
67737;SDS011;54534;43.612;1.572;2022-08-19T13:37:18;5.53;;;2.80;;
67737;SDS011;54534;43.612;1.572;2022-08-19T13:40:03;3.10;;;2.33;;
67737;SDS011;54534;43.612;1.572;2022-08-19T13:42:29;4.73;;;2.53;;
67737;SDS011;54534;43.612;1.572;2022-08-19T13:44:57;3.07;;;2.17;;
67737;SDS011;54534;43.612;1.572;2022-08-19T13:47:23;4.30;;;2.37;;
67737;SDS011;54534;43.612;1.572;2022-08-19T13:49:49;4.33;;;2.53;;
67737;SDS011;54534;43.612;1.572;2022-08-19T13:52:14;5.40;;;2.40;;
67737;SDS011;54534;43.612;1.572;2022-08-19T13:54:40;3.27;;;2.60;;
67737;SDS011;54534;43.612;1.572;2022-08-19T13:57:06;4.97;;;2.40;;
67737;SDS011;54534;43.612;1.572;2022-08-19T13:59:31;5.83;;;2.57;;
67737;SDS011;54534;43.612;1.572;2022-08-19T14:01:58;3.00;;;2.50;;
67737;SDS011;54534;43.612;1.572;2022-08-19T14:04:24;2.57;;;2.20;;
67737;SDS011;54534;43.612;1.572;2022-08-19T14:06:50;7.10;;;3.23;;
67737;SDS011;54534;43.612;1.572;2022-08-19T14:09:15;3.43;;;2.63;;
67737;SDS011;54534;43.612;1.572;2022-08-19T14:11:40;4.70;;;2.57;;
67737;SDS011;54534;43.612;1.572;2022-08-19T14:14:06;3.43;;;2.50;;
67737;SDS011;54534;43.612;1.572;2022-08-19T14:16:31;5.10;;;2.57;;
67737;SDS011;54534;43.612;1.572;2022-08-19T14:18:57;5.03;;;2.50;;
67737;SDS011;54534;43.612;1.572;2022-08-19T14:21:22;5.07;;;2.60;;
67737;SDS011;54534;43.612;1.572;2022-08-19T14:23:50;4.07;;;2.33;;
67737;SDS011;54534;43.612;1.572;2022-08-19T14:26:16;4.13;;;2.30;;
67737;SDS011;54534;43.612;1.572;2022-08-19T14:28:44;2.70;;;2.50;;
67737;SDS011;54534;43.612;1.572;2022-08-19T14:31:14;3.87;;;2.40;;
67737;SDS011;54534;43.612;1.572;2022-08-19T14:33:41;3.07;;;2.30;;
67737;SDS011;54534;43.612;1.572;2022-08-19T14:36:07;3.33;;;2.07;;
67737;SDS011;54534;43.612;1.572;2022-08-19T14:38:33;7.07;;;2.40;;
67737;SDS011;54534;43.612;1.572;2022-08-19T14:43:41;3.93;;;2.70;;
67737;SDS011;54534;43.612;1.572;2022-08-19T14:46:10;3.15;;;2.47;;
67737;SDS011;54534;43.612;1.572;2022-08-19T14:48:37;3.10;;;2.70;;
67737;SDS011;54534;43.612;1.572;2022-08-19T14:51:03;4.40;;;2.30;;
67737;SDS011;54534;43.612;1.572;2022-08-19T14:53:30;8.67;;;2.43;;
67737;SDS011;54534;43.612;1.572;2022-08-19T14:55:58;3.83;;;2.30;;
67737;SDS011;54534;43.612;1.572;2022-08-19T14:58:24;3.00;;;2.67;;
67737;SDS011;54534;43.612;1.572;2022-08-19T15:00:50;4.17;;;1.93;;
67737;SDS011;54534;43.612;1.572;2022-08-19T15:03:15;4.27;;;2.37;;